createdAt,value
2022-08-16T00:01:57.470Z,23.51
2022-08-16T00:04:29.327Z,23.50
2022-08-16T00:06:58.280Z,23.49
2022-08-16T00:09:27.116Z,23.49
2022-08-16T00:11:56.546Z,23.48
2022-08-16T00:14:30.996Z,23.45
2022-08-16T00:17:15.803Z,23.41
2022-08-16T00:19:45.297Z,23.39
2022-08-16T00:22:15.304Z,23.38
2022-08-16T00:24:46.828Z,23.37
2022-08-16T00:27:18.502Z,23.36
2022-08-16T00:30:08.841Z,23.34
2022-08-16T00:32:43.951Z,23.32
2022-08-16T00:35:16.331Z,23.29
2022-08-16T00:37:57.538Z,23.29
2022-08-16T00:40:34.623Z,23.28
2022-08-16T00:43:11.634Z,23.27
2022-08-16T00:45:58.372Z,23.24
2022-08-16T00:48:40.382Z,23.23
2022-08-16T00:51:17.486Z,23.21
2022-08-16T00:53:47.562Z,23.19
2022-08-16T00:56:56.554Z,23.15
2022-08-16T00:59:16.820Z,23.15
2022-08-16T01:01:48.963Z,23.13
2022-08-16T01:04:29.195Z,23.12
2022-08-16T01:07:01.110Z,23.10
2022-08-16T01:09:34.103Z,23.08
2022-08-16T01:12:04.410Z,23.06
2022-08-16T01:14:44.836Z,23.04
2022-08-16T01:17:19.310Z,23.04
2022-08-16T01:19:51.925Z,23.06
2022-08-16T01:22:48.280Z,23.05
2022-08-16T01:25:34.076Z,23.05
2022-08-16T01:28:20.495Z,23.04
2022-08-16T01:31:12.961Z,23.03
2022-08-16T01:33:44.481Z,23.01
2022-08-16T01:36:13.968Z,22.99
2022-08-16T01:38:51.308Z,22.99
2022-08-16T01:41:30.413Z,22.97
2022-08-16T01:44:01.439Z,22.96
2022-08-16T01:46:39.966Z,22.95
2022-08-16T01:50:42.277Z,22.95
2022-08-16T01:52:41.646Z,22.96
2022-08-16T01:55:46.091Z,22.98
2022-08-16T01:58:48.068Z,22.98
2022-08-16T02:01:18.533Z,23.00
2022-08-16T02:03:50.552Z,23.00
2022-08-16T02:06:34.786Z,23.00
2022-08-16T02:09:11.856Z,23.00
2022-08-16T02:11:48.861Z,23.00
2022-08-16T02:14:26.357Z,23.01
2022-08-16T02:16:56.726Z,23.02
2022-08-16T02:19:59.075Z,23.03
2022-08-16T02:22:34.993Z,23.03
2022-08-16T02:25:14.733Z,23.03
2022-08-16T02:27:45.385Z,23.03
2022-08-16T02:30:37.111Z,23.03
2022-08-16T02:33:15.484Z,23.03
2022-08-16T02:35:54.133Z,23.02
2022-08-16T02:38:27.902Z,23.01
2022-08-16T02:40:57.761Z,23.00
2022-08-16T02:43:33.039Z,22.99
2022-08-16T02:46:08.057Z,22.99
2022-08-16T02:48:39.451Z,22.99
2022-08-16T02:51:19.079Z,22.98
2022-08-16T02:53:52.409Z,22.97
2022-08-16T02:56:22.836Z,22.96
2022-08-16T02:58:52.797Z,22.96
2022-08-16T03:01:37.211Z,22.94
2022-08-16T03:04:29.613Z,22.92
2022-08-16T03:07:12.071Z,22.90
2022-08-16T03:09:46.483Z,22.86
2022-08-16T03:12:19.508Z,22.82
2022-08-16T03:14:48.799Z,22.80
2022-08-16T03:17:19.495Z,22.80
2022-08-16T03:20:02.489Z,22.80
2022-08-16T03:22:36.655Z,22.80
2022-08-16T03:25:12.099Z,22.80
2022-08-16T03:27:51.628Z,22.79
2022-08-16T03:30:23.766Z,22.79
2022-08-16T03:32:55.797Z,22.77
2022-08-16T03:35:32.582Z,22.76
2022-08-16T03:38:32.821Z,22.74
2022-08-16T03:41:17.164Z,22.71
2022-08-16T03:43:57.191Z,22.70
2022-08-16T03:46:47.506Z,22.69
2022-08-16T03:49:22.987Z,22.70
2022-08-16T03:52:08.039Z,22.71
2022-08-16T03:54:38.194Z,22.72
2022-08-16T03:57:22.718Z,22.71
2022-08-16T03:59:51.663Z,22.70
2022-08-16T04:02:22.193Z,22.70
2022-08-16T04:04:53.769Z,22.71
2022-08-16T04:07:22.993Z,22.73
2022-08-16T04:09:53.352Z,22.74
2022-08-16T04:12:53.110Z,22.74
2022-08-16T04:15:14.504Z,22.73
2022-08-16T04:18:01.025Z,22.74
2022-08-16T04:20:36.765Z,22.75
2022-08-16T04:23:08.551Z,22.77
2022-08-16T04:25:39.065Z,22.77
2022-08-16T04:28:51.663Z,22.76
2022-08-16T04:31:00.135Z,22.76
2022-08-16T04:33:35.398Z,22.76
2022-08-16T04:36:05.062Z,22.76
2022-08-16T04:38:34.735Z,22.76
2022-08-16T04:41:04.149Z,22.78
2022-08-16T04:43:37.738Z,22.79
2022-08-16T04:46:07.071Z,22.81
2022-08-16T04:48:55.911Z,22.84
2022-08-16T04:51:26.473Z,22.84
2022-08-16T04:54:05.252Z,22.86
2022-08-16T04:56:35.240Z,22.88
2022-08-16T04:59:11.858Z,22.89
2022-08-16T05:01:58.550Z,22.89
2022-08-16T05:04:30.069Z,22.88
2022-08-16T05:06:58.948Z,22.88
2022-08-16T05:09:39.450Z,22.90
2022-08-16T05:12:22.095Z,22.91
2022-08-16T05:15:02.459Z,22.94
2022-08-16T05:17:35.097Z,22.96
2022-08-16T05:20:38.842Z,22.98
2022-08-16T05:22:59.390Z,22.98
2022-08-16T05:25:29.615Z,22.99
2022-08-16T05:28:10.826Z,23.00
2022-08-16T05:30:43.708Z,23.01
2022-08-16T05:33:18.145Z,23.03
2022-08-16T05:35:55.262Z,23.04
2022-08-16T05:38:36.507Z,23.06
2022-08-16T05:41:10.223Z,23.08
2022-08-16T05:43:46.989Z,23.09
2022-08-16T05:46:29.839Z,23.11
2022-08-16T05:49:06.095Z,23.12
2022-08-16T05:51:41.718Z,23.12
2022-08-16T05:54:14.156Z,23.13
2022-08-16T05:56:48.959Z,23.14
2022-08-16T05:59:19.499Z,23.13
2022-08-16T06:01:51.533Z,23.14
2022-08-16T06:04:34.951Z,23.14
2022-08-16T06:07:08.800Z,23.11
2022-08-16T06:09:43.309Z,23.10
2022-08-16T06:12:27.516Z,23.09
2022-08-16T06:15:09.767Z,23.09
2022-08-16T06:17:42.876Z,23.08
2022-08-16T06:20:24.274Z,23.07
2022-08-16T06:23:03.472Z,23.10
2022-08-16T06:25:40.859Z,23.14
2022-08-16T06:28:17.001Z,23.18
2022-08-16T06:30:46.847Z,23.25
2022-08-16T06:33:19.764Z,23.32
2022-08-16T06:35:55.203Z,23.40
2022-08-16T06:38:32.428Z,23.48
2022-08-16T06:41:13.979Z,23.55
2022-08-16T06:43:44.101Z,23.62
2022-08-16T06:46:31.300Z,23.68
2022-08-16T06:49:01.777Z,23.77
2022-08-16T06:51:48.427Z,23.87
2022-08-16T06:54:22.505Z,23.98
2022-08-16T06:56:54.220Z,24.09
2022-08-16T06:59:25.601Z,24.19
2022-08-16T07:01:58.366Z,24.31
2022-08-16T07:04:33.068Z,24.44
2022-08-16T07:07:14.443Z,24.55
2022-08-16T07:09:44.003Z,24.66
2022-08-16T07:12:15.310Z,24.84
2022-08-16T07:14:48.911Z,25.06
2022-08-16T07:17:21.136Z,25.32
2022-08-16T07:20:30.013Z,25.67
2022-08-16T07:22:58.738Z,26.16
2022-08-16T07:25:51.022Z,26.85
2022-08-16T07:28:24.407Z,27.51
2022-08-16T07:30:55.431Z,28.17
2022-08-16T07:33:51.972Z,28.84
2022-08-16T07:36:26.730Z,29.50
2022-08-16T07:38:58.306Z,30.05
2022-08-16T07:41:28.290Z,30.53
2022-08-16T07:44:00.674Z,30.95
2022-08-16T07:46:37.886Z,31.32
2022-08-16T07:49:19.021Z,31.50
2022-08-16T07:51:49.387Z,31.51
2022-08-16T07:54:37.895Z,31.46
2022-08-16T07:57:11.691Z,31.36
2022-08-16T07:59:42.710Z,31.32
2022-08-16T08:02:20.262Z,31.34
2022-08-16T08:04:59.218Z,31.36
2022-08-16T08:07:34.328Z,31.40
2022-08-16T08:10:11.045Z,31.52
2022-08-16T08:12:40.903Z,31.68
2022-08-16T08:15:15.332Z,31.73
2022-08-16T08:17:54.066Z,31.69
2022-08-16T08:20:29.222Z,31.60
2022-08-16T08:23:01.650Z,31.53
2022-08-16T08:25:52.691Z,31.48
2022-08-16T08:28:23.732Z,31.44
2022-08-16T08:31:02.737Z,31.46
2022-08-16T08:33:43.850Z,31.44
2022-08-16T08:36:23.930Z,31.40
2022-08-16T08:39:12.919Z,31.41
2022-08-16T08:41:43.782Z,31.41
2022-08-16T08:44:28.612Z,31.41
2022-08-16T08:47:09.307Z,31.37
2022-08-16T08:49:46.883Z,31.43
2022-08-16T08:52:35.426Z,31.58
2022-08-16T08:55:13.120Z,31.66
2022-08-16T08:57:46.839Z,31.74
2022-08-16T09:00:51.031Z,31.88
2022-08-16T09:03:24.477Z,31.99
2022-08-16T09:05:57.249Z,32.04
2022-08-16T09:08:26.616Z,32.12
2022-08-16T09:11:17.807Z,32.22
2022-08-16T09:13:49.999Z,32.26
2022-08-16T09:17:03.466Z,32.29
2022-08-16T09:19:10.157Z,32.23
2022-08-16T09:21:38.803Z,32.17
2022-08-16T09:24:10.074Z,32.13
2022-08-16T09:26:45.811Z,32.10
2022-08-16T09:29:24.105Z,32.12
2022-08-16T09:32:09.252Z,32.07
2022-08-16T09:34:39.180Z,32.02
2022-08-16T09:37:14.060Z,31.99
2022-08-16T09:39:50.383Z,31.92
2022-08-16T09:42:19.204Z,31.83
2022-08-16T09:45:10.808Z,31.75
2022-08-16T09:47:56.284Z,31.61
2022-08-16T09:50:36.945Z,31.37
2022-08-16T09:53:18.318Z,31.04
2022-08-16T09:55:50.187Z,30.70
2022-08-16T09:58:41.893Z,30.41
2022-08-16T10:01:11.570Z,30.14
2022-08-16T10:04:02.728Z,29.94
2022-08-16T10:06:33.385Z,29.69
2022-08-16T10:09:05.384Z,29.52
2022-08-16T10:11:54.202Z,29.37
2022-08-16T10:14:24.727Z,29.23
2022-08-16T10:17:05.084Z,29.09
2022-08-16T10:19:34.149Z,28.97
2022-08-16T10:22:04.605Z,28.89
2022-08-16T10:24:34.693Z,28.85
2022-08-16T10:27:25.833Z,28.80
2022-08-16T10:30:01.002Z,28.75
2022-08-16T10:32:32.169Z,28.68
2022-08-16T10:35:03.030Z,28.63
2022-08-16T10:37:36.318Z,28.57
2022-08-16T10:40:29.588Z,28.50
2022-08-16T10:42:59.722Z,28.40
2022-08-16T10:45:36.547Z,28.36
2022-08-16T10:48:27.202Z,28.30
2022-08-16T10:50:57.672Z,28.23
2022-08-16T10:53:27.692Z,28.19
2022-08-16T10:56:52.285Z,28.18
2022-08-16T10:58:57.384Z,28.18
2022-08-16T11:01:40.114Z,28.17
2022-08-16T11:07:08.222Z,28.10
2022-08-16T11:12:23.955Z,28.02
2022-08-16T11:17:45.197Z,28.03
2022-08-16T11:20:42.274Z,28.08
2022-08-16T11:23:11.924Z,28.10
2022-08-16T11:29:12.671Z,28.04
2022-08-16T11:31:23.165Z,28.00
2022-08-16T11:33:52.521Z,27.97
2022-08-16T11:36:27.657Z,27.92
2022-08-16T11:38:59.153Z,27.89
2022-08-16T11:41:32.375Z,27.82
2022-08-16T11:44:01.538Z,27.73
2022-08-16T11:46:44.563Z,27.65
2022-08-16T11:49:15.538Z,27.56
2022-08-16T11:51:44.823Z,27.46
2022-08-16T11:54:20.979Z,27.40
2022-08-16T11:56:57.027Z,27.34
2022-08-16T11:59:29.121Z,27.28
2022-08-16T12:01:59.240Z,27.25
2022-08-16T12:04:28.915Z,27.24
2022-08-16T12:07:01.865Z,27.24
2022-08-16T12:09:32.292Z,27.24
2022-08-16T12:12:02.652Z,27.25
2022-08-16T12:14:35.485Z,27.28
2022-08-16T12:17:08.243Z,27.32
2022-08-16T12:19:38.158Z,27.34
2022-08-16T12:22:19.273Z,27.37
2022-08-16T12:24:51.957Z,27.39
2022-08-16T12:27:23.536Z,27.41
2022-08-16T12:29:53.799Z,27.42
2022-08-16T12:32:35.818Z,27.43
2022-08-16T12:35:14.517Z,27.49
2022-08-16T12:37:46.059Z,27.54
2022-08-16T12:40:24.605Z,27.60
2022-08-16T12:42:58.899Z,27.65
2022-08-16T12:45:30.383Z,27.69
2022-08-16T12:48:35.051Z,27.69
2022-08-16T12:51:13.462Z,27.64
2022-08-16T12:53:51.056Z,27.61
2022-08-16T12:56:21.283Z,27.58
2022-08-16T12:58:51.816Z,27.58
2022-08-16T13:01:23.109Z,27.55
2022-08-16T13:04:08.240Z,27.52
2022-08-16T13:06:43.669Z,27.50
2022-08-16T13:09:21.202Z,27.44
2022-08-16T13:11:59.913Z,27.38
2022-08-16T13:14:33.449Z,27.29
2022-08-16T13:17:07.760Z,27.19
2022-08-16T13:20:05.873Z,27.13
2022-08-16T13:22:25.182Z,27.05
2022-08-16T13:24:55.562Z,27.00
2022-08-16T13:28:03.505Z,26.97
2022-08-16T13:30:36.275Z,26.95
2022-08-16T13:33:10.716Z,26.96
2022-08-16T13:35:43.749Z,26.98
2022-08-16T13:38:24.245Z,27.00
2022-08-16T13:40:57.202Z,27.02
2022-08-16T13:43:32.468Z,27.04
2022-08-16T13:46:04.199Z,27.07
2022-08-16T13:48:44.725Z,27.09
2022-08-16T13:51:17.448Z,27.12
2022-08-16T13:53:49.686Z,27.14
2022-08-16T13:56:34.512Z,27.15
2022-08-16T13:59:19.843Z,27.15
2022-08-16T14:01:55.890Z,27.13
2022-08-16T14:04:31.408Z,27.12
2022-08-16T14:07:01.690Z,27.12
2022-08-16T14:09:33.100Z,27.13
2022-08-16T14:12:09.874Z,27.13
2022-08-16T14:14:47.279Z,27.14
2022-08-16T14:17:16.593Z,27.14
2022-08-16T14:19:46.334Z,27.13
2022-08-16T14:22:30.218Z,27.12
2022-08-16T14:25:07.279Z,27.12
2022-08-16T14:27:42.252Z,27.12
2022-08-16T14:30:15.449Z,27.13
2022-08-16T14:32:50.878Z,27.14
2022-08-16T14:35:29.237Z,27.16
2022-08-16T14:38:06.658Z,27.17
2022-08-16T14:40:35.843Z,27.17
2022-08-16T14:43:07.571Z,27.17
2022-08-16T14:45:36.760Z,27.17
2022-08-16T14:48:07.238Z,27.17
2022-08-16T14:50:36.708Z,27.18
2022-08-16T14:53:09.688Z,27.19
2022-08-16T14:55:41.084Z,27.20
2022-08-16T14:58:10.475Z,27.21
2022-08-16T15:00:50.186Z,27.21
2022-08-16T15:03:22.813Z,27.21
2022-08-16T15:05:54.105Z,27.23
2022-08-16T15:08:36.162Z,27.22
2022-08-16T15:11:07.706Z,27.23
2022-08-16T15:13:40.588Z,27.23
2022-08-16T15:16:09.714Z,27.23
2022-08-16T15:18:39.365Z,27.24
2022-08-16T15:21:08.920Z,27.24
2022-08-16T15:23:40.495Z,27.26
2022-08-16T15:26:11.159Z,27.26
2022-08-16T15:28:50.559Z,27.26
2022-08-16T15:31:19.525Z,27.26
2022-08-16T15:33:55.151Z,27.26
2022-08-16T15:36:26.755Z,27.25
2022-08-16T15:39:05.823Z,27.25
2022-08-16T15:42:01.254Z,27.25
2022-08-16T15:44:38.886Z,27.26
2022-08-16T15:47:21.625Z,27.26
2022-08-16T15:49:56.186Z,27.26
2022-08-16T15:52:32.519Z,27.25
2022-08-16T15:55:23.800Z,27.26
2022-08-16T15:57:56.743Z,27.26
2022-08-16T16:00:26.671Z,27.26
2022-08-16T16:03:03.308Z,27.26
2022-08-16T16:05:32.039Z,27.26
2022-08-16T16:08:11.066Z,27.26
2022-08-16T16:10:54.247Z,27.26
2022-08-16T16:13:25.374Z,27.25
2022-08-16T16:15:56.982Z,27.25
2022-08-16T16:18:29.355Z,27.24
2022-08-16T16:21:01.813Z,27.24
2022-08-16T16:23:36.354Z,27.22
2022-08-16T16:26:15.673Z,27.20
2022-08-16T16:29:08.254Z,27.19
2022-08-16T16:31:41.029Z,27.17
2022-08-16T16:34:13.193Z,27.16
2022-08-16T16:36:43.604Z,27.16
2022-08-16T16:39:18.994Z,27.15
2022-08-16T16:41:47.421Z,27.13
2022-08-16T16:44:18.184Z,27.12
2022-08-16T16:47:00.985Z,27.11
2022-08-16T16:49:32.473Z,27.09
2022-08-16T16:52:07.189Z,27.06
2022-08-16T16:54:37.501Z,27.04
2022-08-16T16:57:27.699Z,27.01
2022-08-16T16:59:57.082Z,26.98
2022-08-16T17:02:41.488Z,26.97
2022-08-16T17:05:15.443Z,26.94
2022-08-16T17:07:44.231Z,26.92
2022-08-16T17:10:13.007Z,26.88
2022-08-16T17:13:05.020Z,26.88
2022-08-16T17:15:36.503Z,26.85
2022-08-16T17:19:14.870Z,26.83
2022-08-16T17:20:54.742Z,26.81
2022-08-16T17:23:59.682Z,26.78
2022-08-16T17:26:13.737Z,26.76
2022-08-16T17:31:38.501Z,26.70
2022-08-16T17:34:28.944Z,26.68
2022-08-16T17:37:00.809Z,26.65
2022-08-16T17:39:28.675Z,26.74
2022-08-16T17:39:35.280Z,26.62
2022-08-16T17:42:27.156Z,26.59
2022-08-16T17:44:55.772Z,26.56
2022-08-16T17:47:25.304Z,26.52
2022-08-16T17:49:54.091Z,26.49
2022-08-16T17:52:22.648Z,26.45
2022-08-16T17:54:51.313Z,26.41
2022-08-16T17:57:20.027Z,26.37
2022-08-16T17:59:49.562Z,26.36
2022-08-16T18:02:43.910Z,26.32
2022-08-16T18:05:30.262Z,26.30
2022-08-16T18:07:59.631Z,26.28
2022-08-16T18:10:33.532Z,26.27
2022-08-16T18:13:05.464Z,26.26
2022-08-16T18:15:37.715Z,26.23
2022-08-16T18:18:06.963Z,26.21
2022-08-16T18:20:54.156Z,26.18
2022-08-16T18:23:26.427Z,26.15
2022-08-16T18:25:58.537Z,26.11
2022-08-16T18:28:29.355Z,26.08
2022-08-16T18:31:01.116Z,26.04
2022-08-16T18:33:33.681Z,26.00
2022-08-16T18:36:21.253Z,25.95
2022-08-16T18:38:51.758Z,25.90
2022-08-16T18:41:23.880Z,25.87
2022-08-16T18:44:23.246Z,25.84
2022-08-16T18:46:45.151Z,25.81
2022-08-16T18:49:17.986Z,25.78
2022-08-16T18:51:47.146Z,25.74
2022-08-16T18:54:30.056Z,25.71
2022-08-16T18:56:59.190Z,25.70
2022-08-16T18:59:30.211Z,25.68
2022-08-16T19:02:05.020Z,25.67
2022-08-16T19:04:55.732Z,25.65
2022-08-16T19:07:31.139Z,25.63
2022-08-16T19:10:02.054Z,25.61
2022-08-16T19:12:38.659Z,25.59
2022-08-16T19:15:15.966Z,25.58
2022-08-16T19:17:45.727Z,25.54
2022-08-16T19:20:16.541Z,25.52
2022-08-16T19:25:47.653Z,25.46
2022-08-16T19:28:49.031Z,25.44
2022-08-16T19:31:13.542Z,25.42
2022-08-16T19:33:53.247Z,25.40
2022-08-16T19:36:31.413Z,25.38
2022-08-16T19:39:05.384Z,25.35
2022-08-16T19:41:36.708Z,25.33
2022-08-16T19:44:06.827Z,25.31
2022-08-16T19:46:36.238Z,25.30
2022-08-16T19:49:06.366Z,25.28
2022-08-16T19:51:38.958Z,25.26
2022-08-16T19:54:07.404Z,25.25
2022-08-16T19:56:42.902Z,25.23
2022-08-16T19:59:19.408Z,25.21
2022-08-16T20:01:51.404Z,25.20
2022-08-16T20:04:21.054Z,25.18
2022-08-16T20:06:50.009Z,25.16
2022-08-16T20:09:18.851Z,25.14
2022-08-16T20:11:51.467Z,25.12
2022-08-16T20:14:25.703Z,25.11
2022-08-16T20:16:55.158Z,25.11
2022-08-16T20:19:24.476Z,25.08
2022-08-16T20:21:53.470Z,25.06
2022-08-16T20:24:34.156Z,25.03
2022-08-16T20:27:05.843Z,24.99
2022-08-16T20:29:35.449Z,24.96
2022-08-16T20:32:06.304Z,24.93
2022-08-16T20:34:35.512Z,24.91
2022-08-16T20:37:05.754Z,24.89
2022-08-16T20:39:35.082Z,24.87
2022-08-16T20:42:19.520Z,24.84
2022-08-16T20:44:52.200Z,24.81
2022-08-16T20:47:23.244Z,24.77
2022-08-16T20:49:53.577Z,24.74
2022-08-16T20:52:23.801Z,24.72
2022-08-16T20:54:55.210Z,24.70
2022-08-16T20:57:24.893Z,24.69
2022-08-16T20:59:53.556Z,24.67
2022-08-16T21:02:26.143Z,24.65
2022-08-16T21:04:54.645Z,24.62
2022-08-16T21:07:23.823Z,24.59
2022-08-16T21:09:53.386Z,24.57
2022-08-16T21:12:22.938Z,24.54
2022-08-16T21:14:55.534Z,24.52
2022-08-16T21:17:24.248Z,24.49
2022-08-16T21:19:54.314Z,24.45
2022-08-16T21:22:23.814Z,24.41
2022-08-16T21:24:53.830Z,24.40
2022-08-16T21:27:26.030Z,24.39
2022-08-16T21:29:56.901Z,24.35
2022-08-16T21:32:35.008Z,24.34
2022-08-16T21:35:11.891Z,24.31
2022-08-16T21:38:28.198Z,24.30
2022-08-16T21:40:35.383Z,24.28
2022-08-16T21:43:12.186Z,24.26
2022-08-16T21:45:43.307Z,24.25
2022-08-16T21:48:12.429Z,24.22
2022-08-16T21:50:42.556Z,24.21
2022-08-16T21:53:14.056Z,24.20
2022-08-16T21:55:44.765Z,24.18
2022-08-16T21:58:13.418Z,24.17
2022-08-16T22:00:42.964Z,24.17
2022-08-16T22:03:12.759Z,24.16
2022-08-16T22:05:44.682Z,24.14
2022-08-16T22:08:13.780Z,24.10
2022-08-16T22:11:04.698Z,24.06
2022-08-16T22:13:32.870Z,23.99
2022-08-16T22:16:01.749Z,23.95
2022-08-16T22:18:30.567Z,23.92
2022-08-16T22:20:59.100Z,23.88
2022-08-16T22:23:30.573Z,23.86
2022-08-16T22:25:59.180Z,23.83
2022-08-16T22:28:27.664Z,23.81
2022-08-16T22:30:56.372Z,23.79
2022-08-16T22:33:27.445Z,23.76
2022-08-16T22:35:58.994Z,23.74
2022-08-16T22:38:54.847Z,23.72
2022-08-16T22:41:18.835Z,23.70
2022-08-16T22:43:51.214Z,23.68
2022-08-16T22:46:20.250Z,23.68
2022-08-16T22:48:49.641Z,23.66
2022-08-16T22:51:18.829Z,23.65
2022-08-16T22:53:48.014Z,23.63
2022-08-16T22:56:16.930Z,23.63
2022-08-16T22:58:46.429Z,23.62
2022-08-16T23:01:17.367Z,23.61
2022-08-16T23:03:45.932Z,23.60
2022-08-16T23:06:15.189Z,23.58
2022-08-16T23:08:44.367Z,23.54
2022-08-16T23:11:20.393Z,23.53
2022-08-16T23:13:53.608Z,23.52
2022-08-16T23:16:32.997Z,23.50
2022-08-16T23:19:04.736Z,23.49
2022-08-16T23:21:33.409Z,23.47
2022-08-16T23:24:02.396Z,23.47
2022-08-16T23:26:44.354Z,23.47
2022-08-16T23:29:23.741Z,23.45
2022-08-16T23:31:57.489Z,23.44
2022-08-16T23:34:27.631Z,23.43
2022-08-16T23:36:56.596Z,23.44
2022-08-16T23:39:25.625Z,23.43
2022-08-16T23:41:54.973Z,23.43
2022-08-16T23:44:55.487Z,23.44
2022-08-16T23:47:12.571Z,23.43
2022-08-16T23:50:01.599Z,23.42
2022-08-16T23:52:54.855Z,23.43
2022-08-16T23:55:19.263Z,23.42
2022-08-16T23:57:48.161Z,23.41
